createdAt,value
2022-12-27T00:00:37.541Z,2.60
2022-12-27T00:03:05.515Z,2.05
2022-12-27T00:05:32.903Z,2.40
2022-12-27T00:08:00.484Z,2.30
2022-12-27T00:10:28.258Z,3.28
2022-12-27T00:12:55.840Z,2.30
2022-12-27T00:15:23.224Z,4.25
2022-12-27T00:17:51.143Z,2.85
2022-12-27T00:20:18.767Z,5.30
2022-12-27T00:22:49.124Z,2.67
2022-12-27T00:25:17.042Z,1.95
2022-12-27T00:27:44.445Z,3.55
2022-12-27T00:30:12.520Z,2.72
2022-12-27T00:32:40.311Z,2.00
2022-12-27T00:35:08.290Z,2.70
2022-12-27T00:37:35.690Z,3.17
2022-12-27T00:40:04.163Z,3.65
2022-12-27T00:42:31.565Z,2.17
2022-12-27T00:44:59.250Z,3.70
2022-12-27T00:47:26.901Z,0.98
2022-12-27T00:49:54.251Z,2.75
2022-12-27T00:52:22.097Z,1.95
2022-12-27T00:54:49.781Z,1.90
2022-12-27T00:57:17.322Z,1.55
2022-12-27T00:59:44.898Z,2.03
2022-12-27T01:02:12.786Z,0.75
2022-12-27T01:04:40.303Z,0.60
2022-12-27T01:07:07.843Z,0.68
2022-12-27T01:09:35.787Z,0.90
2022-12-27T01:12:03.257Z,0.47
2022-12-27T01:14:30.835Z,0.40
2022-12-27T01:16:58.668Z,0.43
2022-12-27T01:19:27.317Z,0.73
2022-12-27T01:21:54.718Z,0.00
2022-12-27T01:24:22.743Z,0.55
2022-12-27T01:26:50.258Z,1.05
2022-12-27T01:29:17.781Z,1.00
2022-12-27T01:31:45.684Z,0.00
2022-12-27T01:34:13.575Z,0.20
2022-12-27T01:36:41.220Z,0.22
2022-12-27T01:39:10.877Z,0.75
2022-12-27T01:42:03.702Z,0.25
2022-12-27T01:44:38.106Z,0.00
2022-12-27T01:47:12.702Z,0.30
2022-12-27T01:49:43.644Z,0.20
2022-12-27T01:52:12.564Z,0.32
2022-12-27T01:54:40.768Z,0.77
2022-12-27T01:57:08.179Z,0.55
2022-12-27T01:59:36.640Z,0.60
2022-12-27T02:02:04.965Z,0.10
2022-12-27T02:04:33.268Z,0.08
2022-12-27T02:07:01.717Z,0.00
2022-12-27T02:09:52.524Z,0.57
2022-12-27T02:12:21.289Z,0.20
2022-12-27T02:14:49.647Z,0.00
2022-12-27T02:17:20.251Z,0.57
2022-12-27T02:20:00.104Z,0.00
2022-12-27T02:23:18.781Z,0.37
2022-12-27T02:26:20.924Z,0.77
2022-12-27T02:29:04.486Z,0.17
2022-12-27T02:31:57.140Z,0.00
2022-12-27T02:34:31.252Z,0.50
2022-12-27T02:37:02.873Z,0.90
2022-12-27T02:39:35.308Z,0.43
2022-12-27T02:42:22.199Z,0.43
2022-12-27T02:45:08.518Z,0.68
2022-12-27T02:47:55.402Z,0.10
2022-12-27T02:50:42.048Z,0.37
2022-12-27T02:53:47.231Z,0.30
2022-12-27T02:56:51.720Z,0.20
2022-12-27T02:59:31.663Z,0.00
2022-12-27T03:02:39.432Z,0.10
2022-12-27T03:06:20.431Z,1.23
2022-12-27T03:09:13.609Z,1.30
2022-12-27T03:12:11.893Z,2.17
2022-12-27T03:15:02.599Z,0.00
2022-12-27T03:17:35.127Z,0.55
2022-12-27T03:20:28.943Z,0.50
2022-12-27T03:23:15.374Z,0.40
2022-12-27T03:25:44.492Z,0.65
2022-12-27T03:28:40.209Z,0.77
2022-12-27T03:31:31.748Z,0.13
2022-12-27T03:34:26.504Z,0.20
2022-12-27T03:37:14.144Z,0.50
2022-12-27T03:40:08.923Z,0.50
2022-12-27T03:43:03.096Z,0.17
2022-12-27T03:46:16.423Z,0.65
2022-12-27T03:49:22.957Z,0.70
2022-12-27T03:51:57.040Z,0.47
2022-12-27T03:54:30.646Z,0.77
2022-12-27T03:57:01.478Z,0.37
2022-12-27T03:59:29.117Z,0.47
2022-12-27T04:01:57.032Z,0.45
2022-12-27T04:04:25.402Z,0.43
2022-12-27T04:06:52.982Z,0.00
2022-12-27T04:09:39.458Z,0.15
2022-12-27T04:12:25.941Z,0.10
2022-12-27T04:15:13.251Z,0.10
2022-12-27T04:17:59.784Z,0.60
2022-12-27T04:20:45.725Z,0.75
2022-12-27T04:23:32.242Z,0.17
2022-12-27T04:26:18.888Z,0.15
2022-12-27T04:29:05.717Z,0.10
2022-12-27T04:31:52.178Z,0.22
2022-12-27T04:34:38.731Z,0.20
2022-12-27T04:37:07.073Z,0.00
2022-12-27T04:39:34.879Z,0.40
2022-12-27T04:42:21.019Z,0.90
2022-12-27T04:45:13.257Z,0.15
2022-12-27T04:48:01.486Z,0.95
2022-12-27T04:50:49.320Z,0.88
2022-12-27T04:53:37.640Z,0.00
2022-12-27T04:56:06.294Z,0.28
2022-12-27T04:58:34.651Z,0.47
2022-12-27T05:01:22.751Z,0.55
2022-12-27T05:03:51.853Z,1.70
2022-12-27T05:06:19.664Z,0.65
2022-12-27T05:09:06.968Z,0.00
2022-12-27T05:11:53.427Z,0.30
2022-12-27T05:14:20.930Z,0.90
2022-12-27T05:16:48.921Z,0.55
2022-12-27T05:19:16.326Z,0.10
2022-12-27T05:22:05.107Z,0.50
2022-12-27T05:24:51.715Z,0.93
2022-12-27T05:27:19.366Z,0.40
2022-12-27T05:29:47.566Z,0.62
2022-12-27T05:32:15.258Z,0.10
2022-12-27T05:34:42.693Z,0.28
2022-12-27T05:37:10.789Z,0.62
2022-12-27T05:39:38.310Z,0.10
2022-12-27T05:42:05.941Z,0.80
2022-12-27T05:44:34.081Z,1.00
2022-12-27T05:47:01.971Z,0.00
2022-12-27T05:49:29.706Z,0.40
2022-12-27T05:51:57.536Z,0.20
2022-12-27T05:54:25.225Z,0.68
2022-12-27T05:56:52.721Z,0.37
2022-12-27T05:59:20.542Z,0.80
2022-12-27T06:01:48.238Z,0.50
2022-12-27T06:04:16.770Z,0.57
2022-12-27T06:06:44.191Z,0.45
2022-12-27T06:09:11.753Z,0.62
2022-12-27T06:11:39.497Z,0.35
2022-12-27T06:14:06.978Z,0.50
2022-12-27T06:16:34.488Z,0.45
2022-12-27T06:19:02.510Z,0.95
2022-12-27T06:21:30.304Z,0.20
2022-12-27T06:23:57.709Z,0.98
2022-12-27T06:26:27.395Z,0.95
2022-12-27T06:28:56.451Z,0.10
2022-12-27T06:31:25.248Z,0.37
2022-12-27T06:33:53.928Z,0.52
2022-12-27T06:36:24.063Z,0.08
2022-12-27T06:38:51.584Z,0.00
2022-12-27T06:41:19.667Z,0.03
2022-12-27T06:43:47.956Z,0.00
2022-12-27T06:46:18.570Z,0.73
2022-12-27T06:48:47.595Z,0.03
2022-12-27T06:51:17.185Z,0.22
2022-12-27T06:53:50.143Z,0.00
2022-12-27T06:56:19.871Z,0.57
2022-12-27T06:58:49.138Z,0.52
2022-12-27T07:01:24.533Z,0.15
2022-12-27T07:03:54.750Z,0.52
2022-12-27T07:06:23.746Z,0.00
2022-12-27T07:08:52.630Z,0.10
2022-12-27T07:11:20.972Z,0.25
2022-12-27T07:13:51.082Z,0.37
2022-12-27T07:16:22.049Z,0.45
2022-12-27T07:18:50.237Z,0.00
2022-12-27T07:21:20.866Z,0.32
2022-12-27T07:23:49.257Z,0.30
2022-12-27T07:26:22.235Z,0.65
2022-12-27T07:28:53.599Z,0.00
2022-12-27T07:31:24.047Z,0.00
2022-12-27T07:33:52.945Z,0.22
2022-12-27T07:36:23.192Z,0.22
2022-12-27T07:38:50.778Z,0.20
2022-12-27T07:41:18.634Z,0.22
2022-12-27T07:43:46.523Z,0.10
2022-12-27T07:46:16.760Z,0.00
2022-12-27T07:48:44.829Z,0.00
2022-12-27T07:51:12.787Z,0.00
2022-12-27T07:53:40.517Z,0.28
2022-12-27T07:56:10.100Z,0.00
2022-12-27T07:58:46.452Z,0.00
2022-12-27T08:01:15.974Z,0.00
2022-12-27T08:03:44.088Z,0.00
2022-12-27T08:06:30.657Z,0.47
2022-12-27T08:08:59.562Z,0.05
2022-12-27T08:11:27.499Z,0.25
2022-12-27T08:13:55.056Z,0.00
2022-12-27T08:16:24.745Z,0.00
2022-12-27T08:18:56.107Z,0.17
2022-12-27T08:21:24.070Z,0.10
2022-12-27T08:23:51.757Z,0.13
2022-12-27T08:26:19.192Z,0.10
2022-12-27T08:28:47.110Z,0.00
2022-12-27T08:31:14.688Z,0.00
2022-12-27T08:33:42.336Z,0.08
2022-12-27T08:39:00.088Z,0.00
2022-12-27T08:41:28.060Z,0.00
2022-12-27T08:43:55.911Z,0.17
2022-12-27T08:46:23.667Z,0.00
2022-12-27T08:48:51.746Z,0.00
2022-12-27T08:51:30.268Z,0.00
2022-12-27T08:53:59.480Z,0.00
2022-12-27T08:56:27.131Z,0.00
2022-12-27T08:58:54.684Z,0.00
2022-12-27T09:01:22.795Z,0.00
2022-12-27T09:03:50.357Z,0.00
2022-12-27T09:06:20.308Z,0.00
2022-12-27T09:08:49.476Z,0.15
2022-12-27T09:11:19.401Z,0.55
2022-12-27T09:13:47.096Z,0.00
2022-12-27T09:16:16.986Z,0.00
2022-12-27T09:18:48.194Z,0.00
2022-12-27T09:21:19.720Z,0.00
2022-12-27T09:23:48.427Z,0.00
2022-12-27T09:26:18.489Z,0.00
2022-12-27T09:28:46.820Z,0.10
2022-12-27T09:31:15.039Z,0.00
2022-12-27T09:33:43.503Z,0.08
2022-12-27T09:36:16.238Z,0.20
2022-12-27T09:38:45.058Z,0.00
2022-12-27T09:42:11.462Z,0.00
2022-12-27T09:44:32.386Z,0.00
2022-12-27T09:47:11.246Z,0.00
2022-12-27T09:49:43.459Z,0.00
2022-12-27T09:52:37.995Z,0.00
2022-12-27T09:55:21.356Z,0.00
2022-12-27T09:57:51.082Z,0.00
2022-12-27T10:00:34.068Z,0.00
2022-12-27T10:03:06.730Z,0.00
2022-12-27T10:05:37.192Z,0.00
2022-12-27T10:08:19.525Z,0.00
2022-12-27T10:11:02.675Z,0.00
2022-12-27T10:13:49.565Z,0.00
2022-12-27T10:16:30.295Z,0.00
2022-12-27T10:19:33.988Z,0.00
2022-12-27T10:22:32.660Z,0.00
2022-12-27T10:25:04.313Z,0.00
2022-12-27T10:27:32.012Z,0.30
2022-12-27T10:30:00.372Z,0.00
2022-12-27T10:32:28.074Z,0.00
2022-12-27T10:35:01.943Z,0.00
2022-12-27T10:37:31.049Z,0.00
2022-12-27T10:40:15.901Z,0.00
2022-12-27T10:42:52.777Z,0.22
2022-12-27T10:45:29.625Z,0.00
2022-12-27T10:47:59.848Z,0.00
2022-12-27T10:50:29.114Z,0.00
2022-12-27T10:52:58.032Z,0.00
2022-12-27T10:55:35.438Z,1.17
2022-12-27T10:58:21.256Z,0.00
2022-12-27T11:00:56.944Z,0.10
2022-12-27T11:03:26.263Z,0.00
2022-12-27T11:06:05.367Z,0.00
2022-12-27T11:08:33.147Z,0.00
2022-12-27T11:11:13.790Z,0.00
2022-12-27T11:13:42.857Z,0.00
2022-12-27T11:16:29.457Z,0.00
2022-12-27T11:18:59.378Z,0.00
2022-12-27T11:21:28.577Z,0.13
2022-12-27T11:24:01.259Z,0.10
2022-12-27T11:26:53.734Z,0.32
2022-12-27T11:29:24.471Z,0.00
2022-12-27T11:31:53.196Z,0.00
2022-12-27T11:34:34.317Z,0.20
2022-12-27T11:37:07.307Z,0.05
2022-12-27T11:39:41.272Z,0.03
2022-12-27T11:42:18.497Z,0.45
2022-12-27T11:44:53.687Z,0.00
2022-12-27T11:48:01.666Z,0.20
2022-12-27T11:51:06.132Z,0.32
2022-12-27T11:53:54.198Z,0.47
2022-12-27T11:56:35.981Z,0.00
2022-12-27T11:59:25.583Z,0.00
2022-12-27T12:02:18.058Z,0.00
2022-12-27T12:05:27.511Z,0.00
2022-12-27T12:08:09.847Z,0.00
2022-12-27T12:10:53.558Z,0.00
2022-12-27T12:13:55.073Z,0.00
2022-12-27T12:16:44.710Z,0.10
2022-12-27T12:19:21.363Z,0.00
2022-12-27T12:21:49.451Z,0.10
2022-12-27T12:24:43.534Z,0.00
2022-12-27T12:27:33.310Z,0.37
2022-12-27T12:30:04.091Z,0.00
2022-12-27T12:32:33.722Z,0.00
2022-12-27T12:35:19.786Z,0.00
2022-12-27T12:38:13.210Z,0.00
2022-12-27T12:41:16.930Z,0.00
2022-12-27T12:44:16.027Z,0.40
2022-12-27T12:47:01.147Z,0.00
2022-12-27T12:49:50.679Z,0.00
2022-12-27T12:52:37.055Z,0.00
2022-12-27T12:55:30.938Z,0.00
2022-12-27T12:58:19.403Z,0.47
2022-12-27T13:01:45.160Z,0.08
2022-12-27T13:04:51.698Z,0.00
2022-12-27T13:07:36.241Z,0.15
2022-12-27T13:10:10.070Z,0.85
2022-12-27T13:13:00.115Z,0.15
2022-12-27T13:15:53.314Z,0.10
2022-12-27T13:18:57.197Z,0.10
2022-12-27T13:21:49.257Z,0.00
2022-12-27T13:27:07.248Z,0.00
2022-12-27T13:30:13.080Z,0.00
2022-12-27T13:32:50.509Z,0.00
2022-12-27T13:35:44.374Z,0.00
2022-12-27T13:38:22.718Z,0.00
2022-12-27T13:41:09.363Z,0.30
2022-12-27T13:44:01.576Z,0.08
2022-12-27T13:47:04.182Z,0.00
2022-12-27T13:49:50.472Z,0.15
2022-12-27T13:52:33.683Z,0.00
2022-12-27T13:55:28.626Z,0.00
2022-12-27T13:58:08.903Z,0.00
2022-12-27T14:01:04.045Z,0.00
2022-12-27T14:03:53.744Z,0.08
2022-12-27T14:06:42.649Z,0.00
2022-12-27T14:09:30.791Z,0.28
2022-12-27T14:12:22.810Z,0.00
2022-12-27T14:14:51.453Z,0.00
2022-12-27T14:17:30.979Z,0.00
2022-12-27T14:20:28.827Z,0.10
2022-12-27T14:23:21.466Z,0.00
2022-12-27T14:25:59.329Z,0.00
2022-12-27T14:28:48.675Z,0.10
2022-12-27T14:31:47.019Z,0.00
2022-12-27T14:34:46.842Z,0.00
2022-12-27T14:37:28.391Z,0.47
2022-12-27T14:40:40.774Z,0.47
2022-12-27T14:43:48.213Z,0.05
2022-12-27T14:46:42.032Z,0.28
2022-12-27T14:49:10.174Z,0.20
2022-12-27T14:52:02.440Z,0.10
2022-12-27T14:55:02.479Z,0.00
2022-12-27T14:57:51.937Z,0.00
2022-12-27T15:00:21.879Z,0.65
2022-12-27T15:02:57.307Z,0.05
2022-12-27T15:05:45.451Z,0.40
2022-12-27T15:08:31.754Z,0.08
2022-12-27T15:11:06.815Z,0.37
2022-12-27T15:14:09.852Z,0.00
2022-12-27T15:17:07.244Z,0.05
2022-12-27T15:19:56.807Z,0.10
2022-12-27T15:22:39.835Z,0.28
2022-12-27T15:25:30.319Z,0.00
2022-12-27T15:28:15.823Z,0.00
2022-12-27T15:30:53.134Z,0.00
2022-12-27T15:33:57.734Z,0.05
2022-12-27T15:36:44.028Z,0.13
2022-12-27T15:39:33.861Z,0.50
2022-12-27T15:42:44.815Z,4.30
2022-12-27T15:45:30.406Z,1.35
2022-12-27T15:48:25.828Z,3.28
2022-12-27T15:51:07.529Z,1.90
2022-12-27T15:53:38.109Z,1.15
2022-12-27T15:56:46.985Z,0.65
2022-12-27T15:59:36.845Z,0.57
2022-12-27T16:02:16.976Z,0.52
2022-12-27T16:04:53.144Z,0.40
2022-12-27T16:07:47.035Z,2.17
2022-12-27T16:10:35.625Z,5.93
2022-12-27T16:13:09.203Z,0.80
2022-12-27T16:15:43.591Z,0.88
2022-12-27T16:18:33.638Z,0.40
2022-12-27T16:21:02.045Z,1.42
2022-12-27T16:23:39.446Z,1.12
2022-12-27T16:26:17.310Z,0.08
2022-12-27T16:29:14.760Z,0.80
2022-12-27T16:31:48.230Z,3.55
2022-12-27T16:34:28.852Z,2.10
2022-12-27T16:37:00.897Z,1.77
2022-12-27T16:39:41.614Z,2.12
2022-12-27T16:42:09.698Z,29.60
2022-12-27T16:45:24.866Z,29.98
2022-12-27T16:48:13.563Z,168.37
2022-12-27T16:51:08.406Z,177.43
2022-12-27T16:53:56.147Z,87.15
2022-12-27T16:56:26.077Z,60.25
2022-12-27T16:58:54.011Z,22.42
2022-12-27T17:01:50.861Z,14.52
2022-12-27T17:04:50.131Z,5.15
2022-12-27T17:07:37.356Z,5.95
2022-12-27T17:10:42.429Z,9.27
2022-12-27T17:13:19.423Z,18.75
2022-12-27T17:15:58.505Z,14.15
2022-12-27T17:18:30.050Z,7.03
2022-12-27T17:21:12.924Z,4.97
2022-12-27T17:23:42.696Z,7.75
2022-12-27T17:26:33.449Z,2.08
2022-12-27T17:29:12.229Z,0.45
2022-12-27T17:31:46.058Z,2.00
2022-12-27T17:34:35.848Z,2.72
2022-12-27T17:37:19.991Z,4.95
2022-12-27T17:39:54.624Z,4.87
2022-12-27T17:42:54.773Z,1.55
2022-12-27T17:45:57.988Z,4.90
2022-12-27T17:48:28.746Z,8.30
2022-12-27T17:51:00.683Z,3.03
2022-12-27T17:56:36.837Z,3.53
2022-12-27T17:59:05.966Z,2.85
2022-12-27T18:01:36.172Z,1.73
2022-12-27T18:04:05.282Z,0.90
2022-12-27T18:06:35.594Z,2.30
2022-12-27T18:09:04.432Z,3.20
2022-12-27T18:11:33.380Z,1.85
2022-12-27T18:14:01.289Z,2.42
2022-12-27T18:16:38.046Z,1.15
2022-12-27T18:19:06.207Z,2.20
2022-12-27T18:21:33.887Z,2.58
2022-12-27T18:24:01.518Z,5.82
2022-12-27T18:26:39.824Z,4.28
2022-12-27T18:29:11.202Z,3.30
2022-12-27T18:31:49.874Z,3.17
2022-12-27T18:34:28.695Z,3.60
2022-12-27T18:37:16.214Z,5.62
2022-12-27T18:40:00.587Z,4.37
2022-12-27T18:42:34.786Z,8.27
2022-12-27T18:45:04.899Z,9.02
2022-12-27T18:47:38.204Z,8.52
2022-12-27T18:50:07.040Z,9.40
2022-12-27T18:52:39.741Z,7.25
2022-12-27T18:55:18.024Z,7.05
2022-12-27T18:57:46.553Z,2.50
2022-12-27T19:00:14.329Z,1.55
2022-12-27T19:02:43.118Z,2.12
2022-12-27T19:05:20.240Z,1.75
2022-12-27T19:07:59.825Z,1.00
2022-12-27T19:10:29.560Z,1.05
2022-12-27T19:12:57.584Z,1.35
2022-12-27T19:15:33.555Z,2.08
2022-12-27T19:18:04.895Z,3.42
2022-12-27T19:20:36.881Z,3.05
2022-12-27T19:25:34.939Z,0.80
2022-12-27T19:28:04.617Z,2.78
2022-12-27T19:30:43.656Z,2.83
2022-12-27T19:33:24.618Z,3.60
2022-12-27T19:35:53.012Z,1.02
2022-12-27T19:38:26.314Z,2.45
2022-12-27T19:41:03.095Z,0.75
2022-12-27T19:43:36.486Z,0.85
2022-12-27T19:46:04.537Z,2.25
2022-12-27T19:48:32.267Z,2.40
2022-12-27T19:51:00.035Z,2.40
2022-12-27T19:53:33.834Z,0.65
2022-12-27T19:56:03.303Z,3.58
2022-12-27T19:58:31.782Z,0.60
2022-12-27T20:01:00.558Z,2.35
2022-12-27T20:03:28.590Z,0.77
2022-12-27T20:06:14.034Z,2.87
2022-12-27T20:08:49.179Z,1.55
2022-12-27T20:11:19.949Z,0.98
2022-12-27T20:13:48.355Z,0.20
2022-12-27T20:16:18.564Z,1.40
2022-12-27T20:18:46.933Z,3.53
2022-12-27T20:21:19.788Z,3.95
2022-12-27T20:23:48.252Z,3.05
2022-12-27T20:26:22.403Z,2.17
2022-12-27T20:28:50.495Z,2.65
2022-12-27T20:31:20.624Z,2.37
2022-12-27T20:33:52.771Z,4.10
2022-12-27T20:38:48.530Z,1.30
2022-12-27T20:41:19.283Z,2.20
2022-12-27T20:43:47.191Z,2.10
2022-12-27T20:46:17.122Z,1.08
2022-12-27T20:48:46.227Z,3.28
2022-12-27T20:51:19.099Z,1.65
2022-12-27T20:53:49.172Z,2.35
2022-12-27T20:56:17.560Z,1.80
2022-12-27T20:58:45.575Z,3.00
2022-12-27T21:01:16.220Z,2.22
2022-12-27T21:03:44.610Z,2.78
2022-12-27T21:06:15.093Z,0.62
2022-12-27T21:08:47.863Z,4.53
2022-12-27T21:11:20.276Z,4.35
2022-12-27T21:13:49.000Z,1.30
2022-12-27T21:16:19.880Z,3.20
2022-12-27T21:18:48.787Z,1.83
2022-12-27T21:21:20.982Z,4.25
2022-12-27T21:23:49.647Z,3.97
2022-12-27T21:26:23.362Z,2.28
2022-12-27T21:28:51.683Z,1.73
2022-12-27T21:31:19.464Z,3.58
2022-12-27T21:33:47.528Z,1.65
2022-12-27T21:36:17.696Z,1.00
2022-12-27T21:38:45.488Z,1.70
2022-12-27T21:41:28.863Z,1.33
2022-12-27T21:43:57.029Z,2.53
2022-12-27T21:46:27.570Z,4.32
2022-12-27T21:49:00.811Z,3.55
2022-12-27T21:51:30.408Z,2.70
2022-12-27T21:53:58.127Z,3.37
2022-12-27T21:56:26.116Z,4.95
2022-12-27T21:58:57.291Z,6.95
2022-12-27T22:01:27.134Z,2.92
2022-12-27T22:03:56.062Z,0.82
2022-12-27T22:06:25.762Z,1.73
2022-12-27T22:08:59.903Z,1.85
2022-12-27T22:11:29.090Z,4.32
2022-12-27T22:13:57.069Z,4.70
2022-12-27T22:16:27.307Z,2.35
2022-12-27T22:18:56.229Z,3.00
2022-12-27T22:21:29.324Z,2.90
2022-12-27T22:23:58.906Z,3.05
2022-12-27T22:26:28.752Z,3.42
2022-12-27T22:28:56.819Z,3.12
2022-12-27T22:31:27.844Z,5.32
2022-12-27T22:33:55.502Z,1.10
2022-12-27T22:36:24.882Z,2.92
2022-12-27T22:38:55.194Z,5.32
2022-12-27T22:41:31.855Z,2.30
2022-12-27T22:44:01.334Z,3.87
2022-12-27T22:46:51.190Z,3.03
2022-12-27T22:49:17.943Z,3.53
2022-12-27T22:51:46.056Z,2.80
2022-12-27T22:54:13.613Z,5.87
2022-12-27T22:56:42.483Z,2.80
2022-12-27T22:59:12.743Z,1.27
2022-12-27T23:01:41.371Z,3.03
2022-12-27T23:04:11.631Z,1.27
2022-12-27T23:06:40.626Z,3.80
2022-12-27T23:09:08.895Z,1.17
2022-12-27T23:11:38.453Z,0.77
2022-12-27T23:14:11.019Z,0.25
2022-12-27T23:16:46.338Z,1.60
2022-12-27T23:19:17.014Z,0.40
2022-12-27T23:21:44.659Z,0.85
2022-12-27T23:24:12.297Z,2.05
2022-12-27T23:26:41.657Z,0.80
2022-12-27T23:29:11.623Z,0.65
2022-12-27T23:31:54.508Z,0.50
2022-12-27T23:34:28.777Z,2.15
2022-12-27T23:37:00.352Z,0.60
2022-12-27T23:39:28.870Z,1.12
2022-12-27T23:41:56.756Z,1.73
2022-12-27T23:44:33.372Z,0.43
2022-12-27T23:47:05.937Z,0.88
2022-12-27T23:49:34.415Z,0.52
2022-12-27T23:52:02.910Z,0.57
2022-12-27T23:54:30.654Z,0.43
2022-12-27T23:56:58.655Z,1.00
2022-12-27T23:59:46.446Z,0.43
